Time;durP1;ratioP1;P1;durP2;ratioP2;P2;SDS_P1;SDS_P2;PMS_P1;PMS_P2;Temp;Humidity;BMP_temperature;BMP_pressure;BME280_temperature;BME280_humidity;BME280_pressure;Samples;Min_cycle;Max_cycle;Signal;HPM_P1;HPM_P2
2022/08/31 00:03:56;;;;;;;4.10;0.40;;;15.10;62.70;;;;;;4119607;28;20116;-86
2022/08/31 00:06:00;;;;;;;2.08;0.40;;;15.10;62.60;;;;;;4118670;28;20054;-86
2022/08/31 00:08:01;;;;;;;0.77;0.47;;;15.10;62.60;;;;;;4116742;28;20032;-86
2022/08/31 00:10:12;;;;;;;0.85;0.40;;;15.10;62.90;;;;;;4120620;28;20700;-85
2022/08/31 00:12:14;;;;;;;0.98;0.57;;;15.10;63.00;;;;;;4119076;28;20104;-86
2022/08/31 00:14:16;;;;;;;3.30;0.40;;;15.10;63.30;;;;;;4114460;28;20034;-85
2022/08/31 00:16:16;;;;;;;0.65;0.50;;;15.10;63.30;;;;;;4130567;28;20066;-86
2022/08/31 00:18:17;;;;;;;0.85;0.50;;;15.20;63.40;;;;;;4131599;28;20502;-87
2022/08/31 00:20:20;;;;;;;2.28;0.50;;;15.10;63.50;;;;;;4118775;28;20035;-86
2022/08/31 00:22:21;;;;;;;1.17;0.68;;;15.10;63.80;;;;;;4118540;28;20034;-86
2022/08/31 00:24:21;;;;;;;0.68;0.40;;;15.10;63.70;;;;;;4122850;28;20772;-86
2022/08/31 00:26:23;;;;;;;2.15;0.52;;;15.10;63.80;;;;;;4118576;28;20113;-85
2022/08/31 00:28:24;;;;;;;1.50;0.43;;;15.10;63.80;;;;;;4134300;28;20038;-86
2022/08/31 00:30:25;;;;;;;1.17;0.50;;;15.10;63.80;;;;;;4117989;28;20027;-86
2022/08/31 00:32:25;;;;;;;3.20;0.30;;;15.10;63.80;;;;;;4125071;28;20125;-86
2022/08/31 00:34:26;;;;;;;1.75;0.28;;;15.10;63.80;;;;;;4116024;28;20099;-86
2022/08/31 00:36:27;;;;;;;2.75;0.50;;;15.10;63.70;;;;;;4104827;28;20578;-86
2022/08/31 00:38:28;;;;;;;1.73;0.30;;;15.10;63.70;;;;;;4113423;28;20137;-86
2022/08/31 00:40:29;;;;;;;1.38;0.55;;;15.10;63.70;;;;;;4102149;28;20723;-86
2022/08/31 00:42:29;;;;;;;0.77;0.30;;;15.10;63.60;;;;;;4114682;28;20034;-86
2022/08/31 00:44:30;;;;;;;2.30;0.40;;;15.10;63.50;;;;;;4112590;28;20517;-86
2022/08/31 00:46:34;;;;;;;1.08;0.43;;;15.10;64.30;;;;;;4114561;28;20517;-86
2022/08/31 00:48:40;;;;;;;2.35;0.30;;;15.00;63.40;;;;;;4116117;28;20034;-87
2022/08/31 00:50:40;;;;;;;0.77;0.30;;;15.10;63.40;;;;;;4118319;28;20037;-86
2022/08/31 00:52:47;;;;;;;2.10;0.30;;;15.00;63.30;;;;;;4119363;28;20023;-86
2022/08/31 00:54:58;;;;;;;0.90;0.50;;;15.00;63.30;;;;;;4118963;28;20033;-84
2022/08/31 00:56:59;;;;;;;3.13;0.40;;;15.00;63.40;;;;;;4114847;28;20089;-86
2022/08/31 00:59:00;;;;;;;1.60;0.50;;;15.00;63.30;;;;;;4116658;28;20031;-85
2022/08/31 01:01:04;;;;;;;1.08;0.20;;;14.90;63.30;;;;;;4117422;28;20038;-86
2022/08/31 01:03:07;;;;;;;1.15;0.38;;;14.90;63.40;;;;;;4110645;28;20100;-86
2022/08/31 01:05:08;;;;;;;2.40;0.43;;;14.80;63.40;;;;;;4116398;28;20054;-86
2022/08/31 01:07:09;;;;;;;1.02;0.40;;;14.80;63.40;;;;;;4112544;28;20360;-85
2022/08/31 01:09:11;;;;;;;0.85;0.47;;;14.80;63.70;;;;;;4110636;28;20038;-86
2022/08/31 01:11:13;;;;;;;0.90;0.35;;;14.80;63.90;;;;;;4117827;28;20042;-88
2022/08/31 01:13:15;;;;;;;3.65;0.82;;;14.70;63.90;;;;;;4106118;28;20105;-86
2022/08/31 01:15:16;;;;;;;2.95;0.32;;;14.80;64.30;;;;;;4120129;28;20045;-85
2022/08/31 01:17:19;;;;;;;0.57;0.30;;;14.70;64.60;;;;;;4115075;28;20440;-85
2022/08/31 01:19:32;;;;;;;4.57;0.20;;;14.70;64.70;;;;;;4116275;28;20041;-86
2022/08/31 01:21:58;;;;;;;0.45;0.30;;;14.70;65.20;;;;;;4125974;28;20041;-87
2022/08/31 01:24:02;;;;;;;0.85;0.45;;;14.70;65.60;;;;;;4116187;28;20035;-85
2022/08/31 01:26:04;;;;;;;0.90;0.55;;;14.60;65.10;;;;;;4116549;28;20514;-86
2022/08/31 01:28:07;;;;;;;1.60;0.40;;;14.60;65.30;;;;;;4113276;28;20078;-85
2022/08/31 01:30:10;;;;;;;0.70;0.50;;;14.70;65.60;;;;;;4132320;28;20091;-85
2022/08/31 01:32:11;;;;;;;1.20;0.30;;;14.60;65.80;;;;;;4116653;28;20381;-85
2022/08/31 01:34:12;;;;;;;1.17;0.50;;;14.60;66.10;;;;;;4115328;28;20062;-85
2022/08/31 01:36:14;;;;;;;8.32;0.40;;;14.60;66.40;;;;;;4123527;28;20529;-85
2022/08/31 01:38:14;;;;;;;1.13;0.60;;;14.60;66.60;;;;;;4113237;28;20402;-85
2022/08/31 01:40:16;;;;;;;0.68;0.40;;;14.60;66.90;;;;;;4113512;28;20031;-85
2022/08/31 01:42:17;;;;;;;3.53;0.60;;;14.60;67.10;;;;;;4114829;28;20136;-85
2022/08/31 01:44:20;;;;;;;4.47;0.50;;;14.60;67.50;;;;;;4120308;28;20018;-85
2022/08/31 01:46:21;;;;;;;7.13;0.57;;;14.60;67.80;;;;;;4128687;28;20089;-84
2022/08/31 01:48:23;;;;;;;1.08;0.40;;;14.60;68.50;;;;;;4119519;28;20379;-85
2022/08/31 01:50:24;;;;;;;1.77;0.50;;;14.60;68.40;;;;;;4115621;28;20729;-85
2022/08/31 01:52:28;;;;;;;1.90;0.50;;;14.60;68.70;;;;;;4115665;28;20023;-84
2022/08/31 01:54:28;;;;;;;1.33;0.40;;;14.70;68.90;;;;;;4115397;28;20037;-85
2022/08/31 01:56:34;;;;;;;2.70;0.50;;;14.70;69.10;;;;;;4129666;28;20050;-84
2022/08/31 01:58:35;;;;;;;0.68;0.30;;;14.70;69.50;;;;;;4118209;28;20035;-85
2022/08/31 02:00:36;;;;;;;1.92;0.50;;;14.70;69.50;;;;;;4118014;28;20034;-85
2022/08/31 02:02:36;;;;;;;0.60;0.35;;;14.70;69.70;;;;;;4125087;28;20514;-85
2022/08/31 02:04:38;;;;;;;1.00;0.40;;;14.70;69.90;;;;;;4128449;28;20245;-87
2022/08/31 02:06:46;;;;;;;1.70;0.65;;;14.70;70.00;;;;;;4114596;28;20050;-86
2022/08/31 02:08:46;;;;;;;4.28;0.50;;;14.70;70.30;;;;;;4118432;28;20093;-86
2022/08/31 02:10:47;;;;;;;1.83;0.50;;;14.70;70.10;;;;;;4118805;28;20031;-86
2022/08/31 02:12:48;;;;;;;1.33;0.40;;;14.70;70.90;;;;;;4114934;28;20033;-86
2022/08/31 02:14:49;;;;;;;1.15;0.40;;;14.80;70.70;;;;;;4112276;28;20449;-84
2022/08/31 02:16:50;;;;;;;2.55;0.30;;;14.80;70.70;;;;;;4115915;28;20685;-86
2022/08/31 02:18:51;;;;;;;2.95;0.70;;;14.80;70.60;;;;;;4121668;28;20034;-86
2022/08/31 02:20:52;;;;;;;1.92;0.40;;;14.80;70.60;;;;;;4121670;28;20423;-86
2022/08/31 02:22:52;;;;;;;2.97;0.45;;;14.80;70.70;;;;;;4123122;28;20057;-87
2022/08/31 02:24:53;;;;;;;1.23;0.57;;;14.80;70.70;;;;;;4125376;28;20384;-86
2022/08/31 02:26:54;;;;;;;0.75;0.45;;;14.80;70.90;;;;;;4118372;28;20037;-87
2022/08/31 02:28:54;;;;;;;1.80;0.68;;;14.80;70.80;;;;;;4118596;28;20498;-87
2022/08/31 02:30:55;;;;;;;0.98;0.70;;;14.80;70.80;;;;;;4118954;28;20030;-86
2022/08/31 02:32:56;;;;;;;1.58;0.60;;;14.80;70.90;;;;;;4122140;28;20032;-86
2022/08/31 02:34:56;;;;;;;4.07;0.45;;;14.80;70.90;;;;;;4122022;28;20148;-86
2022/08/31 02:36:57;;;;;;;1.38;0.60;;;14.90;71.10;;;;;;4120774;28;20239;-87
2022/08/31 02:38:58;;;;;;;1.08;0.40;;;14.90;71.20;;;;;;4123237;28;21256;-86
2022/08/31 02:40:59;;;;;;;3.28;0.80;;;14.90;71.10;;;;;;4121287;28;20569;-86
2022/08/31 02:43:00;;;;;;;1.73;0.40;;;14.90;71.20;;;;;;4122304;28;20034;-84
2022/08/31 02:45:00;;;;;;;3.67;0.73;;;14.90;71.30;;;;;;4122670;28;20053;-87
2022/08/31 02:47:01;;;;;;;9.68;0.57;;;14.90;71.40;;;;;;4124311;28;20289;-87
2022/08/31 02:49:02;;;;;;;3.17;0.50;;;14.90;71.80;;;;;;4116345;28;20037;-86
2022/08/31 02:51:08;;;;;;;2.35;0.52;;;14.90;71.70;;;;;;4116621;28;20035;-86
2022/08/31 02:53:10;;;;;;;1.40;0.60;;;14.90;71.80;;;;;;4115622;28;20030;-88
2022/08/31 02:55:11;;;;;;;1.02;0.43;;;14.90;71.90;;;;;;4116668;28;20040;-86
2022/08/31 02:57:12;;;;;;;11.63;0.70;;;14.90;72.00;;;;;;4127997;28;20042;-86
2022/08/31 02:59:12;;;;;;;2.17;0.30;;;14.90;71.90;;;;;;4118003;28;20089;-85
2022/08/31 03:01:13;;;;;;;2.90;0.52;;;14.90;71.90;;;;;;4116581;28;20029;-85
2022/08/31 03:03:14;;;;;;;1.90;0.40;;;14.90;72.20;;;;;;4120287;28;20038;-87
2022/08/31 03:05:16;;;;;;;1.40;0.45;;;14.90;72.40;;;;;;4116578;28;20399;-85
2022/08/31 03:07:17;;;;;;;1.55;0.45;;;14.90;72.30;;;;;;4119446;28;20038;-86
2022/08/31 03:09:17;;;;;;;0.88;0.50;;;14.90;72.50;;;;;;4127740;28;20057;-86
2022/08/31 03:11:18;;;;;;;0.85;0.52;;;14.90;72.40;;;;;;4115514;28;20034;-86
2022/08/31 03:13:19;;;;;;;2.72;0.73;;;14.90;72.40;;;;;;4113137;28;20439;-86
2022/08/31 03:15:22;;;;;;;2.80;0.60;;;15.00;72.60;;;;;;4119023;28;20037;-86
2022/08/31 03:17:23;;;;;;;3.40;0.50;;;15.00;72.70;;;;;;4120012;28;20026;-85
2022/08/31 03:19:24;;;;;;;7.25;0.60;;;15.00;72.70;;;;;;4117155;28;21962;-87
2022/08/31 03:21:25;;;;;;;1.25;0.47;;;15.00;72.60;;;;;;4119158;28;20034;-86
2022/08/31 03:23:26;;;;;;;3.45;0.70;;;15.00;72.50;;;;;;4115372;28;20061;-87
2022/08/31 03:25:27;;;;;;;1.60;0.60;;;15.00;72.50;;;;;;4112035;28;20118;-86
2022/08/31 03:27:29;;;;;;;0.88;0.32;;;15.00;72.50;;;;;;4123565;28;20613;-87
2022/08/31 03:29:29;;;;;;;4.00;0.57;;;15.00;72.30;;;;;;4130815;28;20030;-87
2022/08/31 03:31:30;;;;;;;3.08;0.50;;;15.00;72.30;;;;;;4121340;28;20038;-86
2022/08/31 03:33:31;;;;;;;2.22;0.57;;;15.00;72.20;;;;;;4123839;28;20668;-87
2022/08/31 03:35:32;;;;;;;1.50;0.65;;;15.00;72.20;;;;;;4120670;28;20030;-87
2022/08/31 03:37:33;;;;;;;2.60;0.55;;;15.00;72.30;;;;;;4120891;28;20109;-86
2022/08/31 03:39:34;;;;;;;1.48;0.52;;;15.00;72.30;;;;;;4113043;28;20043;-85
2022/08/31 03:41:34;;;;;;;3.22;0.60;;;15.00;72.20;;;;;;4113903;28;20219;-87
2022/08/31 03:43:35;;;;;;;4.97;0.80;;;15.00;72.20;;;;;;4114017;28;20533;-86
2022/08/31 03:45:38;;;;;;;2.92;0.68;;;15.00;72.30;;;;;;4118918;28;20040;-86
2022/08/31 03:47:40;;;;;;;3.95;0.60;;;15.10;72.30;;;;;;4117211;28;20030;-84
2022/08/31 03:49:41;;;;;;;2.30;0.70;;;15.00;72.30;;;;;;4114844;28;20162;-86
2022/08/31 03:51:43;;;;;;;3.65;0.80;;;15.00;72.40;;;;;;4117200;28;20030;-85
2022/08/31 03:53:43;;;;;;;5.35;0.80;;;15.00;72.30;;;;;;4112099;28;20049;-86
2022/08/31 03:55:44;;;;;;;3.47;0.60;;;15.00;72.30;;;;;;4116984;28;20085;-85
2022/08/31 03:57:45;;;;;;;2.53;0.80;;;15.00;72.30;;;;;;4120125;28;20030;-85
2022/08/31 03:59:45;;;;;;;2.08;0.60;;;15.00;72.10;;;;;;4126182;28;20061;-87
2022/08/31 04:01:46;;;;;;;4.40;0.63;;;14.90;71.70;;;;;;4119057;28;20037;-86
2022/08/31 04:03:47;;;;;;;2.90;0.80;;;14.90;71.50;;;;;;4119127;28;20031;-86
2022/08/31 04:05:48;;;;;;;3.20;0.63;;;14.90;71.20;;;;;;4116908;28;20030;-87
2022/08/31 04:07:48;;;;;;;3.63;0.70;;;14.80;70.90;;;;;;4121847;28;20019;-86
2022/08/31 04:09:49;;;;;;;2.88;0.70;;;14.90;71.00;;;;;;4123711;28;20030;-88
2022/08/31 04:11:50;;;;;;;1.65;0.60;;;14.80;70.80;;;;;;4120321;28;20080;-86
2022/08/31 04:14:11;;;;;;;1.15;0.70;;;14.70;70.80;;;;;;4122171;28;20037;-86
2022/08/31 04:16:34;;;;;;;4.03;0.90;;;14.70;70.70;;;;;;4123562;28;20302;-86
2022/08/31 04:18:54;;;;;;;1.73;0.70;;;14.70;70.70;;;;;;4118550;28;20049;-87
2022/08/31 04:21:21;;;;;;;2.67;0.88;;;14.60;70.70;;;;;;4123496;28;20038;-86
2022/08/31 04:23:42;;;;;;;1.20;0.70;;;14.60;71.30;;;;;;4131561;28;20072;-86
2022/08/31 04:26:04;;;;;;;2.65;0.98;;;14.60;71.70;;;;;;4122837;28;20038;-87
2022/08/31 04:28:24;;;;;;;2.53;0.88;;;14.60;72.20;;;;;;4121085;28;20034;-87
2022/08/31 04:30:57;;;;;;;3.60;1.17;;;14.60;72.50;;;;;;4126319;28;20039;-86
2022/08/31 04:33:18;;;;;;;2.70;0.82;;;14.60;73.00;;;;;;4114805;28;20467;-86
2022/08/31 04:35:42;;;;;;;2.25;0.75;;;14.60;73.30;;;;;;4110838;28;20034;-87
2022/08/31 04:37:45;;;;;;;7.35;0.80;;;14.60;73.60;;;;;;4117574;28;20038;-86
2022/08/31 04:40:07;;;;;;;3.70;1.10;;;14.60;73.70;;;;;;4123427;28;20058;-87
2022/08/31 04:42:29;;;;;;;2.53;0.60;;;14.60;74.00;;;;;;4122113;28;20113;-86
2022/08/31 04:44:50;;;;;;;1.52;0.98;;;14.60;74.20;;;;;;4115980;28;20666;-87
2022/08/31 04:47:11;;;;;;;2.35;0.90;;;14.60;74.20;;;;;;4118540;28;20030;-87
2022/08/31 04:49:31;;;;;;;4.82;0.98;;;14.60;74.40;;;;;;4120287;28;20030;-86
2022/08/31 04:51:52;;;;;;;1.75;0.80;;;14.70;74.70;;;;;;4121270;28;20031;-87
2022/08/31 04:54:13;;;;;;;2.65;0.73;;;14.70;74.80;;;;;;4122441;28;20474;-87
2022/08/31 04:56:37;;;;;;;5.00;0.95;;;14.70;74.90;;;;;;4122788;28;20069;-87
2022/08/31 04:59:03;;;;;;;3.70;0.93;;;14.70;74.90;;;;;;4121883;28;20117;-87
2022/08/31 05:01:08;;;;;;;4.00;0.63;;;14.70;74.90;;;;;;4128032;28;20035;-88
2022/08/31 05:03:08;;;;;;;3.38;0.60;;;14.70;75.10;;;;;;4123627;28;20043;-87
2022/08/31 05:05:09;;;;;;;4.38;0.70;;;14.80;75.30;;;;;;4124065;28;20031;-88
2022/08/31 05:07:10;;;;;;;6.07;1.00;;;14.80;75.40;;;;;;4123792;28;20045;-85
2022/08/31 05:09:15;;;;;;;1.25;0.65;;;14.80;75.60;;;;;;4115290;28;20153;-86
2022/08/31 05:11:17;;;;;;;6.03;0.60;;;14.80;75.50;;;;;;4125381;28;20121;-86
2022/08/31 05:13:18;;;;;;;4.55;0.80;;;14.80;75.60;;;;;;4115874;28;20120;-87
2022/08/31 05:15:19;;;;;;;5.97;0.85;;;14.80;75.60;;;;;;4117157;28;20042;-87
2022/08/31 05:17:19;;;;;;;2.17;1.60;;;14.90;75.90;;;;;;4122781;28;20029;-87
2022/08/31 05:19:20;;;;;;;3.30;0.73;;;14.90;76.00;;;;;;4121322;28;20034;-88
2022/08/31 05:21:27;;;;;;;4.63;0.70;;;14.90;75.90;;;;;;4123147;28;20114;-86
2022/08/31 05:23:28;;;;;;;1.23;0.85;;;14.90;75.90;;;;;;4128269;28;20088;-87
2022/08/31 05:25:29;;;;;;;3.67;0.73;;;15.00;76.30;;;;;;4119765;28;20026;-87
2022/08/31 05:27:29;;;;;;;4.07;0.60;;;15.00;76.20;;;;;;4123553;28;20414;-87
2022/08/31 05:29:30;;;;;;;2.88;0.65;;;15.10;76.40;;;;;;4135618;28;20038;-87
2022/08/31 05:31:31;;;;;;;1.75;0.52;;;15.10;76.30;;;;;;4116413;28;20015;-87
2022/08/31 05:33:32;;;;;;;1.02;0.60;;;15.10;76.20;;;;;;4117939;28;20097;-87
2022/08/31 05:35:33;;;;;;;2.33;0.60;;;15.10;76.20;;;;;;4117986;28;20027;-87
2022/08/31 05:37:34;;;;;;;3.38;0.80;;;15.20;76.20;;;;;;4120977;28;20030;-88
2022/08/31 05:39:35;;;;;;;1.23;0.57;;;15.20;76.20;;;;;;4125020;28;20465;-87
2022/08/31 05:41:37;;;;;;;1.70;0.60;;;15.30;76.20;;;;;;4117893;28;20031;-88
2022/08/31 05:43:38;;;;;;;3.97;0.60;;;15.30;76.10;;;;;;4111862;28;20553;-87
2022/08/31 05:45:42;;;;;;;2.63;0.50;;;15.40;76.00;;;;;;4123450;28;20038;-87
2022/08/31 05:47:43;;;;;;;1.65;0.63;;;15.40;75.90;;;;;;4117857;28;20019;-88
2022/08/31 05:49:44;;;;;;;2.92;0.57;;;15.50;76.10;;;;;;4122561;28;20030;-87
2022/08/31 05:51:44;;;;;;;3.75;0.77;;;15.50;76.00;;;;;;4112215;28;20331;-86
2022/08/31 05:54:06;;;;;;;2.00;0.60;;;15.60;75.90;;;;;;4119037;28;20737;-87
2022/08/31 05:56:27;;;;;;;2.05;0.70;;;15.60;75.90;;;;;;4121449;28;20483;-87
2022/08/31 05:58:48;;;;;;;3.97;0.55;;;15.70;75.90;;;;;;4122822;28;20039;-86
2022/08/31 06:01:22;;;;;;;4.63;0.68;;;15.80;75.60;;;;;;4118940;28;20031;-86
2022/08/31 06:03:43;;;;;;;2.20;0.55;;;15.80;75.00;;;;;;4124439;28;20034;-88
2022/08/31 06:05:44;;;;;;;3.67;0.60;;;15.90;74.80;;;;;;4124122;28;20034;-87
2022/08/31 06:07:46;;;;;;;2.05;0.65;;;16.00;74.70;;;;;;4124364;28;20085;-87
2022/08/31 06:09:46;;;;;;;1.15;0.50;;;16.00;74.10;;;;;;4119988;28;20022;-87
2022/08/31 06:11:47;;;;;;;3.08;0.65;;;16.10;73.50;;;;;;4124189;28;20030;-87
2022/08/31 06:13:50;;;;;;;2.92;0.80;;;16.20;73.10;;;;;;4121713;28;20026;-87
2022/08/31 06:15:51;;;;;;;5.93;0.50;;;16.20;72.80;;;;;;4120879;28;20030;-87
2022/08/31 06:17:53;;;;;;;1.95;0.52;;;16.20;72.10;;;;;;4120722;28;20031;-86
2022/08/31 06:19:56;;;;;;;1.17;0.55;;;16.30;71.90;;;;;;4124693;28;20514;-87
2022/08/31 06:21:57;;;;;;;1.95;0.45;;;16.30;71.80;;;;;;4120399;28;20022;-87
2022/08/31 06:23:58;;;;;;;1.90;0.70;;;16.40;71.60;;;;;;4125466;28;20557;-86
2022/08/31 06:26:11;;;;;;;1.98;0.55;;;16.40;71.10;;;;;;4118461;28;20109;-87
2022/08/31 06:28:14;;;;;;;2.15;0.70;;;16.50;70.80;;;;;;4125635;28;20037;-87
2022/08/31 06:30:18;;;;;;;2.17;0.47;;;16.50;70.50;;;;;;4129574;28;20027;-86
2022/08/31 06:32:19;;;;;;;3.53;0.95;;;16.50;70.50;;;;;;4129333;28;20033;-88
2022/08/31 06:34:20;;;;;;;1.35;0.43;;;16.60;70.30;;;;;;4123042;28;20023;-87
2022/08/31 06:36:23;;;;;;;2.90;0.68;;;16.60;70.30;;;;;;4129713;28;20241;-87
2022/08/31 06:38:24;;;;;;;1.48;0.50;;;16.70;70.10;;;;;;4140246;28;20038;-87
2022/08/31 06:40:25;;;;;;;1.40;0.73;;;16.70;70.00;;;;;;4128831;28;20038;-87
2022/08/31 06:42:26;;;;;;;2.05;0.65;;;16.80;69.80;;;;;;4122644;28;20406;-87
2022/08/31 06:44:28;;;;;;;1.95;0.55;;;16.90;69.70;;;;;;4115939;28;20034;-87
2022/08/31 06:46:32;;;;;;;3.92;0.65;;;16.90;68.80;;;;;;4123838;28;20027;-87
2022/08/31 06:48:34;;;;;;;2.25;0.75;;;16.90;67.30;;;;;;4123526;28;20038;-87
2022/08/31 06:50:37;;;;;;;3.13;0.70;;;17.00;66.80;;;;;;4117951;28;20019;-87
2022/08/31 06:52:39;;;;;;;0.75;0.30;;;17.00;66.60;;;;;;4123458;28;20030;-86
2022/08/31 06:54:40;;;;;;;1.40;0.45;;;17.10;66.30;;;;;;4120550;28;20110;-87
2022/08/31 06:56:40;;;;;;;2.25;0.50;;;17.10;66.20;;;;;;4127253;28;20026;-87
2022/08/31 06:58:42;;;;;;;3.03;0.50;;;17.20;65.50;;;;;;4121829;28;20031;-87
2022/08/31 07:00:42;;;;;;;1.90;0.40;;;17.20;64.90;;;;;;4125873;28;20042;-87
2022/08/31 07:02:43;;;;;;;1.55;0.60;;;17.20;64.60;;;;;;4119850;28;20031;-88
2022/08/31 07:04:43;;;;;;;1.42;0.30;;;17.30;64.20;;;;;;4122966;28;20038;-88
2022/08/31 07:06:44;;;;;;;0.50;0.30;;;17.40;63.70;;;;;;4119758;28;20085;-87
2022/08/31 07:08:48;;;;;;;2.17;0.40;;;17.40;63.60;;;;;;4122538;28;20166;-87
2022/08/31 07:10:49;;;;;;;1.23;0.40;;;17.50;63.00;;;;;;4119364;28;20123;-87
2022/08/31 07:12:50;;;;;;;2.63;0.40;;;17.50;60.90;;;;;;4122196;28;20042;-88
2022/08/31 07:14:51;;;;;;;1.42;0.47;;;17.50;61.10;;;;;;4119525;28;20037;-88
2022/08/31 07:16:54;;;;;;;1.00;0.35;;;17.60;60.70;;;;;;4119829;28;20503;-88
2022/08/31 07:18:58;;;;;;;2.63;0.20;;;17.60;60.10;;;;;;4126334;28;20042;-87
2022/08/31 07:21:14;;;;;;;2.10;0.40;;;17.70;59.50;;;;;;4127372;28;20588;-87
2022/08/31 07:23:16;;;;;;;0.95;0.43;;;17.70;58.50;;;;;;4118394;28;20018;-88
2022/08/31 07:25:17;;;;;;;4.05;0.30;;;17.70;58.40;;;;;;4121585;28;20042;-88
2022/08/31 07:27:17;;;;;;;0.40;0.20;;;17.70;57.90;;;;;;4120808;28;20015;-88
2022/08/31 07:29:20;;;;;;;0.30;0.30;;;17.80;57.80;;;;;;4120520;28;20019;-88
2022/08/31 07:31:36;;;;;;;0.57;0.30;;;17.70;55.70;;;;;;4122890;28;20019;-88
2022/08/31 07:33:37;;;;;;;5.03;0.52;;;17.80;56.10;;;;;;4125097;28;20023;-87
2022/08/31 07:35:38;;;;;;;0.50;0.20;;;17.80;55.40;;;;;;4122218;28;20038;-88
2022/08/31 07:42:22;;;;;;;1.48;0.30;;;18.00;55.90;;;;;;4133451;28;20089;-88
2022/08/31 07:44:23;;;;;;;0.30;0.20;;;18.10;53.80;;;;;;4128574;28;20035;-88
2022/08/31 07:46:28;;;;;;;0.10;0.10;;;18.10;52.40;;;;;;4128277;28;20022;-87
2022/08/31 07:48:29;;;;;;;0.25;0.20;;;18.20;52.20;;;;;;4122592;28;20058;-89
2022/08/31 07:50:30;;;;;;;0.90;0.25;;;18.20;52.30;;;;;;4129355;28;20147;-88
2022/08/31 07:52:31;;;;;;;0.75;0.20;;;18.30;51.70;;;;;;4126288;28;20026;-89
2022/08/31 07:54:33;;;;;;;5.63;0.50;;;18.40;52.40;;;;;;4124324;28;20480;-89
2022/08/31 07:56:36;;;;;;;3.22;0.13;;;18.30;52.10;;;;;;4126571;28;20030;-89
2022/08/31 07:58:38;;;;;;;0.45;0.25;;;18.40;52.00;;;;;;4122564;28;20030;-88
2022/08/31 08:00:40;;;;;;;0.43;0.20;;;18.50;51.80;;;;;;4128040;28;20085;-89
2022/08/31 08:02:45;;;;;;;2.90;0.30;;;18.60;51.10;;;;;;4123008;28;20285;-88
2022/08/31 08:04:49;;;;;;;0.40;0.30;;;18.60;50.60;;;;;;4132382;28;20109;-88
2022/08/31 08:06:54;;;;;;;0.85;0.20;;;18.70;50.40;;;;;;4106984;28;20419;-88
2022/08/31 08:09:05;;;;;;;0.70;0.30;;;18.70;49.80;;;;;;4121717;28;20030;-89
2022/08/31 08:11:05;;;;;;;1.33;0.40;;;18.70;49.90;;;;;;4120773;28;20086;-88
2022/08/31 08:13:07;;;;;;;0.40;0.30;;;18.80;50.20;;;;;;4122787;28;20027;-89
2022/08/31 08:15:09;;;;;;;0.90;0.30;;;18.80;50.20;;;;;;4121911;28;20026;-89
2022/08/31 08:17:09;;;;;;;0.90;0.30;;;18.80;50.20;;;;;;4125541;28;20041;-89
2022/08/31 08:19:10;;;;;;;0.60;0.28;;;18.90;50.50;;;;;;4123187;28;20035;-89
2022/08/31 08:21:12;;;;;;;1.00;0.20;;;18.90;50.70;;;;;;4127555;28;20030;-88
2022/08/31 08:23:14;;;;;;;0.80;0.32;;;19.00;50.50;;;;;;4118702;28;20050;-90
2022/08/31 08:25:15;;;;;;;0.52;0.30;;;19.00;50.50;;;;;;4122390;28;20030;-88
2022/08/31 08:27:16;;;;;;;1.55;0.43;;;19.00;50.50;;;;;;4124311;28;20026;-88
2022/08/31 08:29:18;;;;;;;1.75;0.40;;;19.10;49.80;;;;;;4126142;28;20026;-89
2022/08/31 08:31:23;;;;;;;0.43;0.30;;;19.10;50.20;;;;;;4120772;28;20026;-89
2022/08/31 08:33:24;;;;;;;1.77;0.40;;;19.20;50.20;;;;;;4125271;28;20114;-87
2022/08/31 08:35:30;;;;;;;0.77;0.45;;;19.20;50.40;;;;;;4118563;28;20038;-89
2022/08/31 08:37:32;;;;;;;0.93;0.30;;;19.20;50.30;;;;;;4123149;28;20137;-88
2022/08/31 08:39:33;;;;;;;0.80;0.30;;;19.30;49.70;;;;;;4118034;28;20077;-89
2022/08/31 08:41:37;;;;;;;2.15;0.28;;;19.30;49.40;;;;;;4120415;28;20560;-89
2022/08/31 08:43:41;;;;;;;1.10;0.30;;;19.40;49.20;;;;;;4127802;28;20548;-89
2022/08/31 08:45:44;;;;;;;2.58;0.40;;;19.40;49.30;;;;;;4126895;28;20491;-90
2022/08/31 08:47:48;;;;;;;;;;;19.40;49.40;;;;;;4122594;28;20114;-88
2022/08/31 08:49:55;;;;;;;0.60;0.30;;;19.50;48.90;;;;;;4101848;28;20370;-88
2022/08/31 08:52:02;;;;;;;1.08;0.20;;;19.50;49.00;;;;;;4119219;28;20031;-88
2022/08/31 08:54:12;;;;;;;1.20;0.28;;;19.60;49.40;;;;;;4123086;28;20026;-89
2022/08/31 08:56:13;;;;;;;5.75;1.05;;;19.60;49.20;;;;;;4121045;28;20039;-88
2022/08/31 08:58:17;;;;;;;0.90;0.40;;;19.60;48.90;;;;;;4119355;28;20129;-88
2022/08/31 09:00:24;;;;;;;0.90;0.38;;;19.70;48.50;;;;;;4122529;28;20030;-89
2022/08/31 09:02:56;;;;;;;0.60;0.40;;;19.70;48.00;;;;;;4132927;28;20037;-88
2022/08/31 09:05:41;;;;;;;1.05;0.50;;;19.70;47.70;;;;;;4120339;28;20033;-89
2022/08/31 09:08:13;;;;;;;0.80;0.45;;;19.70;47.60;;;;;;4061735;29;20032;-90
2022/08/31 09:10:24;;;;;;;0.40;0.40;;;19.70;48.20;;;;;;4090553;29;20033;-89
2022/08/31 09:12:43;;;;;;;3.17;0.50;;;19.80;47.90;;;;;;4090607;29;20138;-88
2022/08/31 09:15:14;;;;;;;1.48;0.63;;;19.80;47.20;;;;;;4090761;28;20031;-90
2022/08/31 09:17:42;;;;;;;1.92;0.40;;;19.80;47.60;;;;;;4086728;28;20043;-88
2022/08/31 09:20:04;;;;;;;3.30;0.60;;;19.90;48.30;;;;;;4075475;29;20043;-88
2022/08/31 09:22:05;;;;;;;3.20;0.50;;;19.90;47.90;;;;;;4093401;28;20039;-88
2022/08/31 09:24:12;;;;;;;1.58;0.70;;;20.00;46.50;;;;;;4077280;29;20109;-89
2022/08/31 09:26:17;;;;;;;1.95;0.40;;;20.00;45.90;;;;;;4087860;28;20035;-89
2022/08/31 09:28:35;;;;;;;2.28;0.30;;;20.10;46.80;;;;;;4089166;28;20028;-89
2022/08/31 09:30:42;;;;;;;0.95;0.50;;;20.10;45.60;;;;;;4088214;28;20127;-89
2022/08/31 09:32:56;;;;;;;1.52;0.40;;;20.20;45.70;;;;;;4092155;28;20091;-88
2022/08/31 09:35:08;;;;;;;2.13;0.50;;;20.20;45.60;;;;;;4090229;28;20190;-88
2022/08/31 09:37:39;;;;;;;0.95;0.50;;;20.20;45.30;;;;;;4087532;28;20044;-88
2022/08/31 09:39:39;;;;;;;3.20;0.60;;;20.20;45.00;;;;;;4091733;28;20065;-89
2022/08/31 09:41:40;;;;;;;1.70;0.45;;;20.20;45.10;;;;;;4071077;29;20040;-89
2022/08/31 09:43:41;;;;;;;0.80;0.50;;;20.10;45.00;;;;;;4109767;28;20145;-89
2022/08/31 09:46:23;;;;;;;0.60;0.50;;;20.20;44.80;;;;;;4120381;28;20533;-89
2022/08/31 09:48:54;;;;;;;1.30;0.40;;;20.20;44.70;;;;;;4074461;29;20036;-89
2022/08/31 09:51:00;;;;;;;0.50;0.40;;;20.10;44.80;;;;;;4073740;29;20091;-89
2022/08/31 09:55:42;;;;;;;2.60;0.68;;;20.10;43.70;;;;;;4087983;28;20039;-88
2022/08/31 09:57:53;;;;;;;1.95;0.75;;;20.10;45.10;;;;;;4075270;29;20074;-89
2022/08/31 09:59:54;;;;;;;0.95;0.60;;;20.10;43.40;;;;;;4084869;29;20031;-88
2022/08/31 10:01:57;;;;;;;0.65;0.40;;;20.10;43.50;;;;;;4087144;28;20043;-89
2022/08/31 10:04:14;;;;;;;2.67;0.45;;;20.10;44.10;;;;;;4093773;28;20047;-89
2022/08/31 10:06:42;;;;;;;1.13;0.60;;;20.20;43.30;;;;;;4093170;28;20508;-88
2022/08/31 10:08:57;;;;;;;1.67;0.63;;;20.20;43.60;;;;;;4091595;29;20496;-89
2022/08/31 10:11:05;;;;;;;0.93;0.47;;;20.20;44.00;;;;;;4090083;28;20456;-88
2022/08/31 10:13:21;;;;;;;0.85;0.45;;;20.30;44.40;;;;;;4088834;28;20054;-89
2022/08/31 10:15:47;;;;;;;1.77;0.70;;;20.30;43.60;;;;;;4092033;29;20024;-89
2022/08/31 10:18:29;;;;;;;1.30;0.40;;;20.30;43.00;;;;;;4085906;28;20031;-90
2022/08/31 10:20:38;;;;;;;1.02;0.60;;;20.30;42.40;;;;;;4054009;29;20110;-89
2022/08/31 10:22:50;;;;;;;1.17;0.70;;;20.30;42.60;;;;;;4051422;29;20485;-89
2022/08/31 10:25:13;;;;;;;1.90;0.60;;;20.30;43.10;;;;;;4065966;29;20488;-90
2022/08/31 10:27:30;;;;;;;1.48;0.65;;;20.40;44.00;;;;;;4053472;29;20040;-88
2022/08/31 10:29:40;;;;;;;0.65;0.40;;;20.50;43.90;;;;;;4070572;29;20016;-90
2022/08/31 10:31:46;;;;;;;3.85;0.80;;;20.50;44.30;;;;;;4054559;29;20477;-88
2022/08/31 10:36:24;;;;;;;1.20;0.80;;;20.60;42.10;;;;;;4068711;29;20412;-89
2022/08/31 10:38:36;;;;;;;1.83;0.50;;;20.50;43.10;;;;;;4071389;29;20136;-89
2022/08/31 10:40:48;;;;;;;1.57;0.70;;;20.60;43.80;;;;;;4071279;29;20622;-89
2022/08/31 10:43:08;;;;;;;2.08;0.63;;;20.60;43.60;;;;;;4058849;29;20028;-89
2022/08/31 10:45:21;;;;;;;1.02;0.50;;;20.70;44.00;;;;;;4060595;29;20386;-89
2022/08/31 10:47:27;;;;;;;2.23;0.50;;;20.80;44.30;;;;;;4069965;29;20036;-88
2022/08/31 10:49:28;;;;;;;1.48;0.60;;;20.80;44.30;;;;;;4068348;29;20548;-89
2022/08/31 10:51:38;;;;;;;1.67;0.45;;;20.90;43.80;;;;;;4060389;29;20028;-90
2022/08/31 10:53:45;;;;;;;0.57;0.50;;;20.90;43.60;;;;;;4060904;29;20032;-90
2022/08/31 10:56:01;;;;;;;1.25;0.65;;;21.00;43.40;;;;;;4084267;28;20462;-89
2022/08/31 10:58:07;;;;;;;0.93;0.60;;;21.00;42.50;;;;;;4119478;28;20049;-89
2022/08/31 11:00:40;;;;;;;1.25;0.35;;;21.00;42.40;;;;;;4124470;28;20506;-89
2022/08/31 11:02:58;;;;;;;1.13;0.60;;;20.90;42.90;;;;;;4123395;28;20465;-89
2022/08/31 11:05:29;;;;;;;2.13;0.55;;;20.90;42.80;;;;;;4120556;28;20188;-89
2022/08/31 11:07:35;;;;;;;1.75;0.90;;;20.90;43.10;;;;;;4135801;28;20057;-89
2022/08/31 11:09:57;;;;;;;1.90;0.50;;;20.90;42.90;;;;;;4127948;28;20029;-90